sensor_id;sensor_type;location;lat;lon;timestamp;P1;durP1;ratioP1;P2;durP2;ratioP2
10430;SDS011;5262;59.958;17.726;2023-02-07T00:00:12;9.23;;;4.93;;
10430;SDS011;5262;59.958;17.726;2023-02-07T00:02:41;16.30;;;6.23;;
10430;SDS011;5262;59.958;17.726;2023-02-07T00:05:11;15.57;;;5.23;;
10430;SDS011;5262;59.958;17.726;2023-02-07T00:07:37;13.50;;;5.47;;
10430;SDS011;5262;59.958;17.726;2023-02-07T00:10:04;11.67;;;5.43;;
10430;SDS011;5262;59.958;17.726;2023-02-07T00:12:31;16.50;;;5.47;;
10430;SDS011;5262;59.958;17.726;2023-02-07T00:14:57;14.00;;;5.97;;
10430;SDS011;5262;59.958;17.726;2023-02-07T00:17:23;14.10;;;5.70;;
10430;SDS011;5262;59.958;17.726;2023-02-07T00:19:49;11.37;;;5.87;;
10430;SDS011;5262;59.958;17.726;2023-02-07T00:22:15;14.57;;;5.37;;
10430;SDS011;5262;59.958;17.726;2023-02-07T00:24:40;15.90;;;5.73;;
10430;SDS011;5262;59.958;17.726;2023-02-07T00:27:06;9.43;;;5.83;;
10430;SDS011;5262;59.958;17.726;2023-02-07T00:29:32;14.30;;;5.63;;
10430;SDS011;5262;59.958;17.726;2023-02-07T00:31:57;17.33;;;5.50;;
10430;SDS011;5262;59.958;17.726;2023-02-07T00:34:23;11.33;;;5.27;;
10430;SDS011;5262;59.958;17.726;2023-02-07T00:36:49;15.43;;;5.80;;
10430;SDS011;5262;59.958;17.726;2023-02-07T00:39:15;10.30;;;5.70;;
10430;SDS011;5262;59.958;17.726;2023-02-07T00:41:42;12.13;;;5.73;;
10430;SDS011;5262;59.958;17.726;2023-02-07T00:44:09;16.63;;;6.47;;
10430;SDS011;5262;59.958;17.726;2023-02-07T00:46:36;13.53;;;6.10;;
10430;SDS011;5262;59.958;17.726;2023-02-07T00:49:02;13.10;;;5.70;;
10430;SDS011;5262;59.958;17.726;2023-02-07T00:51:29;12.17;;;5.93;;
10430;SDS011;5262;59.958;17.726;2023-02-07T00:53:55;12.37;;;5.43;;
10430;SDS011;5262;59.958;17.726;2023-02-07T00:56:22;10.33;;;5.37;;
10430;SDS011;5262;59.958;17.726;2023-02-07T00:58:49;13.20;;;5.47;;
10430;SDS011;5262;59.958;17.726;2023-02-07T01:01:15;15.00;;;5.70;;
10430;SDS011;5262;59.958;17.726;2023-02-07T01:03:41;12.43;;;4.80;;
10430;SDS011;5262;59.958;17.726;2023-02-07T01:06:07;11.47;;;5.37;;
10430;SDS011;5262;59.958;17.726;2023-02-07T01:08:33;11.43;;;5.10;;
10430;SDS011;5262;59.958;17.726;2023-02-07T01:11:03;10.83;;;5.93;;
10430;SDS011;5262;59.958;17.726;2023-02-07T01:13:36;12.00;;;5.57;;
10430;SDS011;5262;59.958;17.726;2023-02-07T01:16:02;12.73;;;5.37;;
10430;SDS011;5262;59.958;17.726;2023-02-07T01:18:29;11.43;;;5.87;;
10430;SDS011;5262;59.958;17.726;2023-02-07T01:20:54;12.70;;;6.10;;
10430;SDS011;5262;59.958;17.726;2023-02-07T01:23:20;9.80;;;5.87;;
10430;SDS011;5262;59.958;17.726;2023-02-07T01:25:45;10.47;;;5.50;;
10430;SDS011;5262;59.958;17.726;2023-02-07T01:28:11;10.17;;;5.97;;
10430;SDS011;5262;59.958;17.726;2023-02-07T01:30:39;11.50;;;5.47;;
10430;SDS011;5262;59.958;17.726;2023-02-07T01:33:06;10.17;;;5.67;;
10430;SDS011;5262;59.958;17.726;2023-02-07T01:35:32;16.77;;;6.20;;
10430;SDS011;5262;59.958;17.726;2023-02-07T01:37:58;11.43;;;6.27;;
10430;SDS011;5262;59.958;17.726;2023-02-07T01:40:24;12.93;;;5.73;;
10430;SDS011;5262;59.958;17.726;2023-02-07T01:42:51;9.97;;;5.67;;
10430;SDS011;5262;59.958;17.726;2023-02-07T01:45:26;12.97;;;5.70;;
10430;SDS011;5262;59.958;17.726;2023-02-07T01:47:55;9.30;;;5.17;;
10430;SDS011;5262;59.958;17.726;2023-02-07T01:50:24;13.57;;;5.77;;
10430;SDS011;5262;59.958;17.726;2023-02-07T01:52:50;12.00;;;5.50;;
10430;SDS011;5262;59.958;17.726;2023-02-07T01:55:21;10.87;;;5.20;;
10430;SDS011;5262;59.958;17.726;2023-02-07T01:57:49;8.60;;;4.67;;
10430;SDS011;5262;59.958;17.726;2023-02-07T02:00:16;8.27;;;4.70;;
10430;SDS011;5262;59.958;17.726;2023-02-07T02:02:42;10.93;;;5.03;;
10430;SDS011;5262;59.958;17.726;2023-02-07T02:05:09;9.60;;;4.53;;
10430;SDS011;5262;59.958;17.726;2023-02-07T02:07:36;7.47;;;4.43;;
10430;SDS011;5262;59.958;17.726;2023-02-07T02:10:20;11.97;;;4.87;;
10430;SDS011;5262;59.958;17.726;2023-02-07T02:23:58;9.23;;;4.10;;
10430;SDS011;5262;59.958;17.726;2023-02-07T02:26:57;9.33;;;3.33;;
10430;SDS011;5262;59.958;17.726;2023-02-07T02:38:33;11.40;;;4.30;;
10430;SDS011;5262;59.958;17.726;2023-02-07T02:41:10;10.57;;;4.27;;
10430;SDS011;5262;59.958;17.726;2023-02-07T02:43:46;11.53;;;4.37;;
10430;SDS011;5262;59.958;17.726;2023-02-07T02:46:23;7.87;;;3.87;;
10430;SDS011;5262;59.958;17.726;2023-02-07T02:48:54;9.40;;;3.80;;
10430;SDS011;5262;59.958;17.726;2023-02-07T02:51:21;10.70;;;3.83;;
10430;SDS011;5262;59.958;17.726;2023-02-07T02:53:53;12.00;;;4.97;;
10430;SDS011;5262;59.958;17.726;2023-02-07T02:56:25;15.63;;;4.50;;
10430;SDS011;5262;59.958;17.726;2023-02-07T03:01:53;10.43;;;4.57;;
10430;SDS011;5262;59.958;17.726;2023-02-07T03:04:43;9.20;;;4.83;;
10430;SDS011;5262;59.958;17.726;2023-02-07T03:11:06;15.90;;;5.27;;
10430;SDS011;5262;59.958;17.726;2023-02-07T03:19:18;13.57;;;5.80;;
10430;SDS011;5262;59.958;17.726;2023-02-07T03:21:52;13.23;;;5.37;;
10430;SDS011;5262;59.958;17.726;2023-02-07T03:24:29;9.93;;;5.30;;
10430;SDS011;5262;59.958;17.726;2023-02-07T03:26:59;12.60;;;5.03;;
10430;SDS011;5262;59.958;17.726;2023-02-07T03:29:28;14.03;;;4.47;;
10430;SDS011;5262;59.958;17.726;2023-02-07T03:31:56;10.20;;;5.00;;
10430;SDS011;5262;59.958;17.726;2023-02-07T03:34:27;13.47;;;4.60;;
10430;SDS011;5262;59.958;17.726;2023-02-07T03:37:06;13.53;;;5.87;;
10430;SDS011;5262;59.958;17.726;2023-02-07T03:39:44;12.50;;;6.17;;
10430;SDS011;5262;59.958;17.726;2023-02-07T03:42:24;9.40;;;4.87;;
10430;SDS011;5262;59.958;17.726;2023-02-07T03:44:55;12.63;;;4.77;;
10430;SDS011;5262;59.958;17.726;2023-02-07T03:47:21;13.87;;;4.43;;
10430;SDS011;5262;59.958;17.726;2023-02-07T03:49:49;12.77;;;5.00;;
10430;SDS011;5262;59.958;17.726;2023-02-07T03:52:14;12.70;;;5.37;;
10430;SDS011;5262;59.958;17.726;2023-02-07T03:54:40;9.03;;;4.53;;
10430;SDS011;5262;59.958;17.726;2023-02-07T03:57:06;12.93;;;4.57;;
10430;SDS011;5262;59.958;17.726;2023-02-07T03:59:31;14.77;;;4.43;;
10430;SDS011;5262;59.958;17.726;2023-02-07T04:01:57;12.13;;;4.17;;
10430;SDS011;5262;59.958;17.726;2023-02-07T04:04:22;11.13;;;4.40;;
10430;SDS011;5262;59.958;17.726;2023-02-07T04:06:51;11.50;;;3.83;;
10430;SDS011;5262;59.958;17.726;2023-02-07T04:09:17;7.80;;;3.87;;
10430;SDS011;5262;59.958;17.726;2023-02-07T04:11:42;11.57;;;3.67;;
10430;SDS011;5262;59.958;17.726;2023-02-07T04:14:09;10.17;;;3.47;;
10430;SDS011;5262;59.958;17.726;2023-02-07T04:16:35;10.73;;;3.83;;
10430;SDS011;5262;59.958;17.726;2023-02-07T04:19:00;14.67;;;4.00;;
10430;SDS011;5262;59.958;17.726;2023-02-07T04:21:26;8.50;;;2.77;;
10430;SDS011;5262;59.958;17.726;2023-02-07T04:23:52;11.43;;;3.73;;
10430;SDS011;5262;59.958;17.726;2023-02-07T04:26:17;12.57;;;3.60;;
10430;SDS011;5262;59.958;17.726;2023-02-07T04:28:43;9.83;;;3.63;;
10430;SDS011;5262;59.958;17.726;2023-02-07T04:31:09;14.33;;;3.50;;
10430;SDS011;5262;59.958;17.726;2023-02-07T04:33:35;15.33;;;3.97;;
10430;SDS011;5262;59.958;17.726;2023-02-07T04:36:01;11.50;;;3.50;;
10430;SDS011;5262;59.958;17.726;2023-02-07T04:38:28;16.53;;;3.87;;
10430;SDS011;5262;59.958;17.726;2023-02-07T04:40:58;11.23;;;3.83;;
10430;SDS011;5262;59.958;17.726;2023-02-07T04:43:27;8.47;;;3.50;;
10430;SDS011;5262;59.958;17.726;2023-02-07T04:45:52;9.27;;;4.10;;
10430;SDS011;5262;59.958;17.726;2023-02-07T04:48:18;14.77;;;4.17;;
10430;SDS011;5262;59.958;17.726;2023-02-07T04:50:44;14.10;;;3.73;;
10430;SDS011;5262;59.958;17.726;2023-02-07T04:53:10;11.80;;;3.30;;
10430;SDS011;5262;59.958;17.726;2023-02-07T04:55:36;10.60;;;3.47;;
10430;SDS011;5262;59.958;17.726;2023-02-07T04:58:02;12.87;;;3.57;;
10430;SDS011;5262;59.958;17.726;2023-02-07T05:00:28;12.37;;;3.40;;
10430;SDS011;5262;59.958;17.726;2023-02-07T05:02:54;12.17;;;3.37;;
10430;SDS011;5262;59.958;17.726;2023-02-07T05:05:20;13.20;;;3.40;;
10430;SDS011;5262;59.958;17.726;2023-02-07T05:07:45;7.47;;;2.67;;
10430;SDS011;5262;59.958;17.726;2023-02-07T05:10:11;14.20;;;4.47;;
10430;SDS011;5262;59.958;17.726;2023-02-07T05:12:36;14.10;;;3.60;;
10430;SDS011;5262;59.958;17.726;2023-02-07T05:15:02;13.13;;;3.40;;
10430;SDS011;5262;59.958;17.726;2023-02-07T05:17:28;10.67;;;3.80;;
10430;SDS011;5262;59.958;17.726;2023-02-07T05:19:54;13.20;;;3.93;;
10430;SDS011;5262;59.958;17.726;2023-02-07T05:22:20;12.53;;;3.67;;
10430;SDS011;5262;59.958;17.726;2023-02-07T05:24:45;8.80;;;2.90;;
10430;SDS011;5262;59.958;17.726;2023-02-07T05:27:11;15.17;;;3.73;;
10430;SDS011;5262;59.958;17.726;2023-02-07T05:29:37;12.27;;;3.93;;
10430;SDS011;5262;59.958;17.726;2023-02-07T05:32:02;13.53;;;3.93;;
10430;SDS011;5262;59.958;17.726;2023-02-07T05:34:46;14.53;;;4.10;;
10430;SDS011;5262;59.958;17.726;2023-02-07T05:37:12;15.07;;;4.20;;
10430;SDS011;5262;59.958;17.726;2023-02-07T05:39:38;10.37;;;3.77;;
10430;SDS011;5262;59.958;17.726;2023-02-07T05:42:03;8.27;;;3.37;;
10430;SDS011;5262;59.958;17.726;2023-02-07T05:44:29;10.87;;;3.60;;
10430;SDS011;5262;59.958;17.726;2023-02-07T05:46:54;11.57;;;4.33;;
10430;SDS011;5262;59.958;17.726;2023-02-07T05:49:20;17.43;;;4.37;;
10430;SDS011;5262;59.958;17.726;2023-02-07T05:51:46;11.73;;;3.67;;
10430;SDS011;5262;59.958;17.726;2023-02-07T05:54:11;16.00;;;3.60;;
10430;SDS011;5262;59.958;17.726;2023-02-07T05:56:37;9.77;;;3.60;;
10430;SDS011;5262;59.958;17.726;2023-02-07T05:59:02;10.97;;;3.70;;
10430;SDS011;5262;59.958;17.726;2023-02-07T06:01:28;13.10;;;4.20;;
10430;SDS011;5262;59.958;17.726;2023-02-07T06:03:54;15.30;;;3.97;;
10430;SDS011;5262;59.958;17.726;2023-02-07T06:06:19;12.70;;;3.67;;
10430;SDS011;5262;59.958;17.726;2023-02-07T06:08:45;13.83;;;4.30;;
10430;SDS011;5262;59.958;17.726;2023-02-07T06:11:10;15.83;;;3.87;;
10430;SDS011;5262;59.958;17.726;2023-02-07T06:13:36;15.07;;;3.80;;
10430;SDS011;5262;59.958;17.726;2023-02-07T06:16:03;11.27;;;3.60;;
10430;SDS011;5262;59.958;17.726;2023-02-07T06:18:29;10.23;;;3.67;;
10430;SDS011;5262;59.958;17.726;2023-02-07T06:20:54;8.40;;;3.90;;
10430;SDS011;5262;59.958;17.726;2023-02-07T06:23:20;12.80;;;4.40;;
10430;SDS011;5262;59.958;17.726;2023-02-07T06:25:47;7.87;;;3.77;;
10430;SDS011;5262;59.958;17.726;2023-02-07T06:28:12;13.80;;;4.17;;
10430;SDS011;5262;59.958;17.726;2023-02-07T06:30:38;15.33;;;3.97;;
10430;SDS011;5262;59.958;17.726;2023-02-07T06:33:04;17.13;;;4.70;;
10430;SDS011;5262;59.958;17.726;2023-02-07T06:35:30;10.27;;;3.57;;
10430;SDS011;5262;59.958;17.726;2023-02-07T06:37:55;13.40;;;4.10;;
10430;SDS011;5262;59.958;17.726;2023-02-07T06:40:21;10.30;;;3.77;;
10430;SDS011;5262;59.958;17.726;2023-02-07T06:42:46;16.50;;;4.60;;
10430;SDS011;5262;59.958;17.726;2023-02-07T06:45:12;15.60;;;4.43;;
10430;SDS011;5262;59.958;17.726;2023-02-07T06:47:38;10.97;;;4.00;;
10430;SDS011;5262;59.958;17.726;2023-02-07T06:50:03;11.43;;;4.00;;
10430;SDS011;5262;59.958;17.726;2023-02-07T06:52:29;22.70;;;4.27;;
10430;SDS011;5262;59.958;17.726;2023-02-07T06:54:55;14.80;;;4.77;;
10430;SDS011;5262;59.958;17.726;2023-02-07T06:57:21;14.67;;;4.13;;
10430;SDS011;5262;59.958;17.726;2023-02-07T06:59:46;13.63;;;3.97;;
10430;SDS011;5262;59.958;17.726;2023-02-07T07:02:12;16.87;;;4.10;;
10430;SDS011;5262;59.958;17.726;2023-02-07T07:04:38;15.10;;;4.27;;
10430;SDS011;5262;59.958;17.726;2023-02-07T07:07:03;11.10;;;3.10;;
10430;SDS011;5262;59.958;17.726;2023-02-07T07:09:29;14.47;;;4.30;;
10430;SDS011;5262;59.958;17.726;2023-02-07T07:11:54;16.13;;;3.87;;
10430;SDS011;5262;59.958;17.726;2023-02-07T07:14:20;13.50;;;3.83;;
10430;SDS011;5262;59.958;17.726;2023-02-07T07:16:46;15.07;;;4.20;;
10430;SDS011;5262;59.958;17.726;2023-02-07T07:19:11;14.30;;;3.70;;
10430;SDS011;5262;59.958;17.726;2023-02-07T07:21:37;10.53;;;3.77;;
10430;SDS011;5262;59.958;17.726;2023-02-07T07:24:03;11.00;;;3.53;;
10430;SDS011;5262;59.958;17.726;2023-02-07T07:26:29;10.90;;;3.33;;
10430;SDS011;5262;59.958;17.726;2023-02-07T07:28:55;13.57;;;3.87;;
10430;SDS011;5262;59.958;17.726;2023-02-07T07:31:24;11.03;;;3.70;;
10430;SDS011;5262;59.958;17.726;2023-02-07T07:33:53;11.50;;;4.13;;
10430;SDS011;5262;59.958;17.726;2023-02-07T07:36:19;13.83;;;4.40;;
10430;SDS011;5262;59.958;17.726;2023-02-07T07:38:45;15.63;;;4.00;;
10430;SDS011;5262;59.958;17.726;2023-02-07T07:41:11;21.07;;;5.57;;
10430;SDS011;5262;59.958;17.726;2023-02-07T07:43:36;15.30;;;4.80;;
10430;SDS011;5262;59.958;17.726;2023-02-07T07:46:02;14.97;;;4.40;;
10430;SDS011;5262;59.958;17.726;2023-02-07T07:48:28;14.77;;;4.47;;
10430;SDS011;5262;59.958;17.726;2023-02-07T07:50:54;15.23;;;3.63;;
10430;SDS011;5262;59.958;17.726;2023-02-07T07:53:19;17.20;;;4.07;;
10430;SDS011;5262;59.958;17.726;2023-02-07T07:55:49;14.47;;;3.43;;
10430;SDS011;5262;59.958;17.726;2023-02-07T07:58:19;14.80;;;3.97;;
10430;SDS011;5262;59.958;17.726;2023-02-07T08:00:45;17.33;;;4.17;;
10430;SDS011;5262;59.958;17.726;2023-02-07T08:03:12;11.60;;;3.50;;
10430;SDS011;5262;59.958;17.726;2023-02-07T08:05:38;14.03;;;3.90;;
10430;SDS011;5262;59.958;17.726;2023-02-07T08:08:05;12.37;;;3.17;;
10430;SDS011;5262;59.958;17.726;2023-02-07T08:10:31;10.43;;;3.70;;
10430;SDS011;5262;59.958;17.726;2023-02-07T08:12:57;13.77;;;4.03;;
10430;SDS011;5262;59.958;17.726;2023-02-07T08:15:23;12.87;;;3.57;;
10430;SDS011;5262;59.958;17.726;2023-02-07T08:17:49;10.10;;;3.63;;
10430;SDS011;5262;59.958;17.726;2023-02-07T08:20:15;10.23;;;3.53;;
10430;SDS011;5262;59.958;17.726;2023-02-07T08:22:40;14.40;;;4.07;;
10430;SDS011;5262;59.958;17.726;2023-02-07T08:25:06;14.97;;;3.67;;
10430;SDS011;5262;59.958;17.726;2023-02-07T08:27:32;12.13;;;3.77;;
10430;SDS011;5262;59.958;17.726;2023-02-07T08:29:58;9.03;;;3.70;;
10430;SDS011;5262;59.958;17.726;2023-02-07T08:32:24;6.87;;;3.07;;
10430;SDS011;5262;59.958;17.726;2023-02-07T08:34:49;12.20;;;3.27;;
10430;SDS011;5262;59.958;17.726;2023-02-07T08:37:15;15.27;;;4.27;;
10430;SDS011;5262;59.958;17.726;2023-02-07T08:39:41;9.20;;;3.57;;
10430;SDS011;5262;59.958;17.726;2023-02-07T08:42:06;12.07;;;3.50;;
10430;SDS011;5262;59.958;17.726;2023-02-07T08:44:32;15.23;;;3.83;;
10430;SDS011;5262;59.958;17.726;2023-02-07T08:46:59;12.20;;;4.37;;
10430;SDS011;5262;59.958;17.726;2023-02-07T08:49:24;12.63;;;4.10;;
10430;SDS011;5262;59.958;17.726;2023-02-07T08:51:50;16.63;;;4.40;;
10430;SDS011;5262;59.958;17.726;2023-02-07T08:54:17;14.23;;;4.63;;
10430;SDS011;5262;59.958;17.726;2023-02-07T08:56:43;14.90;;;4.57;;
10430;SDS011;5262;59.958;17.726;2023-02-07T08:59:09;10.33;;;4.47;;
10430;SDS011;5262;59.958;17.726;2023-02-07T09:01:34;12.30;;;4.50;;
10430;SDS011;5262;59.958;17.726;2023-02-07T09:04:00;14.40;;;4.23;;
10430;SDS011;5262;59.958;17.726;2023-02-07T09:06:26;14.77;;;5.07;;
10430;SDS011;5262;59.958;17.726;2023-02-07T09:08:52;11.33;;;4.00;;
10430;SDS011;5262;59.958;17.726;2023-02-07T09:11:17;11.83;;;4.23;;
10430;SDS011;5262;59.958;17.726;2023-02-07T09:13:43;11.23;;;4.10;;
10430;SDS011;5262;59.958;17.726;2023-02-07T09:16:11;17.17;;;4.77;;
10430;SDS011;5262;59.958;17.726;2023-02-07T09:18:37;10.83;;;4.30;;
10430;SDS011;5262;59.958;17.726;2023-02-07T09:21:03;13.23;;;4.20;;
10430;SDS011;5262;59.958;17.726;2023-02-07T09:23:30;16.03;;;4.90;;
10430;SDS011;5262;59.958;17.726;2023-02-07T09:25:59;11.37;;;4.53;;
10430;SDS011;5262;59.958;17.726;2023-02-07T09:28:27;11.60;;;4.10;;
10430;SDS011;5262;59.958;17.726;2023-02-07T09:30:53;9.93;;;4.20;;
10430;SDS011;5262;59.958;17.726;2023-02-07T09:33:19;13.03;;;5.00;;
10430;SDS011;5262;59.958;17.726;2023-02-07T09:35:47;14.87;;;4.63;;
10430;SDS011;5262;59.958;17.726;2023-02-07T09:38:17;13.63;;;5.07;;
10430;SDS011;5262;59.958;17.726;2023-02-07T09:40:46;9.20;;;4.70;;
10430;SDS011;5262;59.958;17.726;2023-02-07T09:46:21;17.13;;;5.17;;
10430;SDS011;5262;59.958;17.726;2023-02-07T09:48:56;18.87;;;5.40;;
10430;SDS011;5262;59.958;17.726;2023-02-07T09:51:31;9.93;;;4.57;;
10430;SDS011;5262;59.958;17.726;2023-02-07T09:53:59;17.17;;;4.77;;
10430;SDS011;5262;59.958;17.726;2023-02-07T09:56:28;13.00;;;5.27;;
10430;SDS011;5262;59.958;17.726;2023-02-07T09:59:02;13.77;;;5.10;;
10430;SDS011;5262;59.958;17.726;2023-02-07T10:01:42;20.40;;;5.67;;
10430;SDS011;5262;59.958;17.726;2023-02-07T10:06:46;17.20;;;4.70;;
10430;SDS011;5262;59.958;17.726;2023-02-07T10:09:17;18.93;;;4.93;;
10430;SDS011;5262;59.958;17.726;2023-02-07T10:14:48;8.67;;;3.87;;
10430;SDS011;5262;59.958;17.726;2023-02-07T10:17:33;10.37;;;4.47;;
10430;SDS011;5262;59.958;17.726;2023-02-07T10:26:12;9.60;;;5.07;;
10430;SDS011;5262;59.958;17.726;2023-02-07T10:29:05;17.97;;;5.70;;
10430;SDS011;5262;59.958;17.726;2023-02-07T10:32:14;13.10;;;5.03;;
10430;SDS011;5262;59.958;17.726;2023-02-07T10:34:48;9.63;;;4.83;;
10430;SDS011;5262;59.958;17.726;2023-02-07T10:37:20;12.93;;;5.60;;
10430;SDS011;5262;59.958;17.726;2023-02-07T10:40:02;12.10;;;5.37;;
10430;SDS011;5262;59.958;17.726;2023-02-07T10:43:01;15.57;;;5.37;;
10430;SDS011;5262;59.958;17.726;2023-02-07T10:45:29;15.67;;;5.20;;
10430;SDS011;5262;59.958;17.726;2023-02-07T10:47:55;16.57;;;5.83;;
10430;SDS011;5262;59.958;17.726;2023-02-07T10:50:22;16.70;;;6.37;;
10430;SDS011;5262;59.958;17.726;2023-02-07T10:52:52;12.07;;;4.60;;
10430;SDS011;5262;59.958;17.726;2023-02-07T10:55:32;13.07;;;5.03;;
10430;SDS011;5262;59.958;17.726;2023-02-07T10:58:17;15.60;;;4.90;;
10430;SDS011;5262;59.958;17.726;2023-02-07T11:00:51;11.33;;;4.97;;
10430;SDS011;5262;59.958;17.726;2023-02-07T11:03:19;14.37;;;5.63;;
10430;SDS011;5262;59.958;17.726;2023-02-07T11:08:17;20.30;;;5.30;;
10430;SDS011;5262;59.958;17.726;2023-02-07T11:10:49;17.63;;;5.87;;
10430;SDS011;5262;59.958;17.726;2023-02-07T11:13:20;19.10;;;5.30;;
10430;SDS011;5262;59.958;17.726;2023-02-07T11:21:23;15.83;;;5.63;;
10430;SDS011;5262;59.958;17.726;2023-02-07T11:23:53;13.10;;;4.50;;
10430;SDS011;5262;59.958;17.726;2023-02-07T11:26:24;15.37;;;6.23;;
10430;SDS011;5262;59.958;17.726;2023-02-07T11:28:51;16.43;;;6.27;;
10430;SDS011;5262;59.958;17.726;2023-02-07T11:31:18;15.17;;;8.23;;
10430;SDS011;5262;59.958;17.726;2023-02-07T11:33:54;17.27;;;8.30;;
10430;SDS011;5262;59.958;17.726;2023-02-07T11:36:44;18.57;;;7.03;;
10430;SDS011;5262;59.958;17.726;2023-02-07T11:39:14;14.83;;;6.43;;
10430;SDS011;5262;59.958;17.726;2023-02-07T11:41:51;19.47;;;5.83;;
10430;SDS011;5262;59.958;17.726;2023-02-07T11:44:22;13.50;;;5.40;;
10430;SDS011;5262;59.958;17.726;2023-02-07T11:46:49;16.17;;;5.93;;
10430;SDS011;5262;59.958;17.726;2023-02-07T11:49:22;16.10;;;5.53;;
10430;SDS011;5262;59.958;17.726;2023-02-07T11:51:52;19.23;;;5.90;;
10430;SDS011;5262;59.958;17.726;2023-02-07T11:54:24;16.27;;;6.53;;
10430;SDS011;5262;59.958;17.726;2023-02-07T11:56:51;18.00;;;6.23;;
10430;SDS011;5262;59.958;17.726;2023-02-07T11:59:23;19.90;;;7.97;;
10430;SDS011;5262;59.958;17.726;2023-02-07T12:01:56;19.73;;;8.17;;
10430;SDS011;5262;59.958;17.726;2023-02-07T12:04:27;17.00;;;6.97;;
10430;SDS011;5262;59.958;17.726;2023-02-07T12:06:59;14.97;;;6.87;;
10430;SDS011;5262;59.958;17.726;2023-02-07T12:12:04;24.27;;;7.30;;
10430;SDS011;5262;59.958;17.726;2023-02-07T12:14:38;16.33;;;6.97;;
10430;SDS011;5262;59.958;17.726;2023-02-07T12:17:13;17.60;;;6.90;;
10430;SDS011;5262;59.958;17.726;2023-02-07T12:19:48;23.57;;;6.67;;
10430;SDS011;5262;59.958;17.726;2023-02-07T12:22:20;16.40;;;7.53;;
10430;SDS011;5262;59.958;17.726;2023-02-07T12:28:02;22.40;;;7.40;;
10430;SDS011;5262;59.958;17.726;2023-02-07T12:30:42;16.93;;;7.37;;
10430;SDS011;5262;59.958;17.726;2023-02-07T12:33:18;19.17;;;6.87;;
10430;SDS011;5262;59.958;17.726;2023-02-07T12:38:29;20.53;;;8.27;;
10430;SDS011;5262;59.958;17.726;2023-02-07T12:47:00;16.37;;;7.33;;
10430;SDS011;5262;59.958;17.726;2023-02-07T12:54:58;21.00;;;8.77;;
10430;SDS011;5262;59.958;17.726;2023-02-07T13:06:20;24.97;;;9.83;;
10430;SDS011;5262;59.958;17.726;2023-02-07T13:08:55;22.47;;;10.40;;
10430;SDS011;5262;59.958;17.726;2023-02-07T13:11:46;28.63;;;10.20;;
10430;SDS011;5262;59.958;17.726;2023-02-07T13:14:40;28.53;;;10.70;;
10430;SDS011;5262;59.958;17.726;2023-02-07T13:20:15;29.03;;;11.90;;
10430;SDS011;5262;59.958;17.726;2023-02-07T13:23:05;23.87;;;10.77;;
10430;SDS011;5262;59.958;17.726;2023-02-07T13:25:41;24.90;;;10.03;;
10430;SDS011;5262;59.958;17.726;2023-02-07T13:28:13;23.93;;;9.90;;
10430;SDS011;5262;59.958;17.726;2023-02-07T13:30:45;27.10;;;10.30;;
10430;SDS011;5262;59.958;17.726;2023-02-07T13:33:17;25.60;;;9.10;;
10430;SDS011;5262;59.958;17.726;2023-02-07T13:35:51;23.43;;;9.47;;
10430;SDS011;5262;59.958;17.726;2023-02-07T13:38:21;23.53;;;9.30;;
10430;SDS011;5262;59.958;17.726;2023-02-07T13:42:15;23.10;;;9.67;;
10430;SDS011;5262;59.958;17.726;2023-02-07T13:49:52;31.03;;;9.87;;
10430;SDS011;5262;59.958;17.726;2023-02-07T13:52:36;22.70;;;9.57;;
10430;SDS011;5262;59.958;17.726;2023-02-07T13:55:30;23.10;;;9.23;;
10430;SDS011;5262;59.958;17.726;2023-02-07T13:58:07;23.23;;;9.03;;
10430;SDS011;5262;59.958;17.726;2023-02-07T14:01:24;31.03;;;10.17;;
10430;SDS011;5262;59.958;17.726;2023-02-07T14:06:41;25.00;;;10.40;;
10430;SDS011;5262;59.958;17.726;2023-02-07T14:14:33;26.97;;;10.80;;
10430;SDS011;5262;59.958;17.726;2023-02-07T14:22:17;29.13;;;10.47;;
10430;SDS011;5262;59.958;17.726;2023-02-07T14:27:35;21.27;;;8.90;;
10430;SDS011;5262;59.958;17.726;2023-02-07T14:36:17;31.93;;;11.37;;
10430;SDS011;5262;59.958;17.726;2023-02-07T14:38:40;27.57;;;12.10;;
10430;SDS011;5262;59.958;17.726;2023-02-07T14:41:12;27.00;;;12.37;;
10430;SDS011;5262;59.958;17.726;2023-02-07T14:46:06;31.47;;;11.90;;
10430;SDS011;5262;59.958;17.726;2023-02-07T14:48:58;30.43;;;12.80;;
10430;SDS011;5262;59.958;17.726;2023-02-07T14:51:48;32.63;;;13.20;;
10430;SDS011;5262;59.958;17.726;2023-02-07T14:57:01;32.67;;;13.10;;
10430;SDS011;5262;59.958;17.726;2023-02-07T14:59:33;32.53;;;13.03;;
10430;SDS011;5262;59.958;17.726;2023-02-07T15:04:55;37.03;;;12.33;;
10430;SDS011;5262;59.958;17.726;2023-02-07T15:07:21;40.03;;;13.50;;
10430;SDS011;5262;59.958;17.726;2023-02-07T15:09:47;41.17;;;13.87;;
10430;SDS011;5262;59.958;17.726;2023-02-07T15:12:23;46.60;;;13.83;;
10430;SDS011;5262;59.958;17.726;2023-02-07T15:14:52;30.73;;;13.40;;
10430;SDS011;5262;59.958;17.726;2023-02-07T15:17:19;40.67;;;14.03;;
10430;SDS011;5262;59.958;17.726;2023-02-07T15:19:46;37.33;;;14.07;;
10430;SDS011;5262;59.958;17.726;2023-02-07T15:22:21;34.87;;;13.30;;
10430;SDS011;5262;59.958;17.726;2023-02-07T15:24:56;37.43;;;14.07;;
10430;SDS011;5262;59.958;17.726;2023-02-07T15:27:24;36.50;;;13.40;;
10430;SDS011;5262;59.958;17.726;2023-02-07T15:29:53;36.00;;;14.30;;
10430;SDS011;5262;59.958;17.726;2023-02-07T15:32:22;42.30;;;13.93;;
10430;SDS011;5262;59.958;17.726;2023-02-07T15:34:51;32.30;;;13.80;;
10430;SDS011;5262;59.958;17.726;2023-02-07T15:37:21;36.83;;;13.40;;
10430;SDS011;5262;59.958;17.726;2023-02-07T15:39:49;46.30;;;13.70;;
10430;SDS011;5262;59.958;17.726;2023-02-07T15:42:17;35.83;;;14.23;;
10430;SDS011;5262;59.958;17.726;2023-02-07T15:44:45;30.27;;;12.03;;
10430;SDS011;5262;59.958;17.726;2023-02-07T15:50:00;34.67;;;14.23;;
10430;SDS011;5262;59.958;17.726;2023-02-07T15:55:13;36.13;;;14.27;;
10430;SDS011;5262;59.958;17.726;2023-02-07T15:57:42;44.63;;;13.50;;
10430;SDS011;5262;59.958;17.726;2023-02-07T16:03:28;41.60;;;13.10;;
10430;SDS011;5262;59.958;17.726;2023-02-07T16:06:00;36.97;;;13.00;;
10430;SDS011;5262;59.958;17.726;2023-02-07T16:08:37;37.80;;;11.43;;
10430;SDS011;5262;59.958;17.726;2023-02-07T16:11:11;30.60;;;11.37;;
10430;SDS011;5262;59.958;17.726;2023-02-07T16:13:50;39.97;;;10.90;;
10430;SDS011;5262;59.958;17.726;2023-02-07T16:16:24;29.50;;;8.97;;
10430;SDS011;5262;59.958;17.726;2023-02-07T16:21:44;27.07;;;8.80;;
10430;SDS011;5262;59.958;17.726;2023-02-07T16:24:15;31.20;;;8.80;;
10430;SDS011;5262;59.958;17.726;2023-02-07T16:26:46;29.20;;;9.17;;
10430;SDS011;5262;59.958;17.726;2023-02-07T16:29:15;25.43;;;7.83;;
10430;SDS011;5262;59.958;17.726;2023-02-07T16:31:43;26.67;;;7.30;;
10430;SDS011;5262;59.958;17.726;2023-02-07T16:34:12;24.33;;;7.53;;
10430;SDS011;5262;59.958;17.726;2023-02-07T16:36:39;24.23;;;6.73;;
10430;SDS011;5262;59.958;17.726;2023-02-07T16:39:05;19.33;;;6.03;;
10430;SDS011;5262;59.958;17.726;2023-02-07T16:41:32;22.30;;;6.80;;
10430;SDS011;5262;59.958;17.726;2023-02-07T16:43:59;17.77;;;6.07;;
10430;SDS011;5262;59.958;17.726;2023-02-07T16:46:28;18.53;;;7.00;;
10430;SDS011;5262;59.958;17.726;2023-02-07T16:48:54;24.87;;;6.67;;
10430;SDS011;5262;59.958;17.726;2023-02-07T16:51:19;23.17;;;5.80;;
10430;SDS011;5262;59.958;17.726;2023-02-07T16:53:45;20.80;;;6.27;;
10430;SDS011;5262;59.958;17.726;2023-02-07T16:56:11;15.10;;;4.73;;
10430;SDS011;5262;59.958;17.726;2023-02-07T16:58:56;21.50;;;5.57;;
10430;SDS011;5262;59.958;17.726;2023-02-07T17:01:21;22.97;;;5.67;;